sensor_id;sensor_type;location;lat;lon;timestamp;P1;durP1;ratioP1;P2;durP2;ratioP2
23206;SDS011;11773;52.570;13.052;2022-07-23T00:01:36;0.90;;;0.90;;
23206;SDS011;11773;52.570;13.052;2022-07-23T00:04:06;1.20;;;1.10;;
23206;SDS011;11773;52.570;13.052;2022-07-23T00:06:36;1.13;;;1.13;;
23206;SDS011;11773;52.570;13.052;2022-07-23T00:09:05;1.67;;;1.57;;
23206;SDS011;11773;52.570;13.052;2022-07-23T00:11:35;1.80;;;1.70;;
23206;SDS011;11773;52.570;13.052;2022-07-23T00:14:05;1.20;;;1.10;;
23206;SDS011;11773;52.570;13.052;2022-07-23T00:16:34;1.50;;;1.40;;
23206;SDS011;11773;52.570;13.052;2022-07-23T00:19:04;1.27;;;1.17;;
23206;SDS011;11773;52.570;13.052;2022-07-23T00:21:33;0.80;;;0.80;;
23206;SDS011;11773;52.570;13.052;2022-07-23T00:24:03;1.00;;;0.93;;
23206;SDS011;11773;52.570;13.052;2022-07-23T00:26:33;0.87;;;0.87;;
23206;SDS011;11773;52.570;13.052;2022-07-23T00:29:03;0.90;;;0.90;;
23206;SDS011;11773;52.570;13.052;2022-07-23T00:31:32;0.90;;;0.90;;
23206;SDS011;11773;52.570;13.052;2022-07-23T00:34:02;0.87;;;0.87;;
23206;SDS011;11773;52.570;13.052;2022-07-23T00:36:31;0.90;;;0.90;;
23206;SDS011;11773;52.570;13.052;2022-07-23T00:39:01;1.30;;;1.20;;
23206;SDS011;11773;52.570;13.052;2022-07-23T00:41:31;0.90;;;0.90;;
23206;SDS011;11773;52.570;13.052;2022-07-23T00:46:56;1.50;;;1.40;;
23206;SDS011;11773;52.570;13.052;2022-07-23T00:49:27;0.93;;;0.93;;
23206;SDS011;11773;52.570;13.052;2022-07-23T00:51:58;1.00;;;1.00;;
23206;SDS011;11773;52.570;13.052;2022-07-23T00:54:30;0.90;;;0.90;;
23206;SDS011;11773;52.570;13.052;2022-07-23T00:57:00;1.30;;;1.20;;
23206;SDS011;11773;52.570;13.052;2022-07-23T00:59:29;1.00;;;1.00;;
23206;SDS011;11773;52.570;13.052;2022-07-23T01:01:59;1.20;;;1.20;;
23206;SDS011;11773;52.570;13.052;2022-07-23T01:04:28;1.40;;;1.30;;
23206;SDS011;11773;52.570;13.052;2022-07-23T01:06:58;1.20;;;1.10;;
23206;SDS011;11773;52.570;13.052;2022-07-23T01:09:28;1.33;;;1.23;;
23206;SDS011;11773;52.570;13.052;2022-07-23T01:11:59;1.47;;;1.37;;
23206;SDS011;11773;52.570;13.052;2022-07-23T01:14:29;1.57;;;1.47;;
23206;SDS011;11773;52.570;13.052;2022-07-23T01:16:59;1.03;;;1.03;;
23206;SDS011;11773;52.570;13.052;2022-07-23T01:19:28;1.10;;;1.00;;
23206;SDS011;11773;52.570;13.052;2022-07-23T01:21:58;1.02;;;1.00;;
23206;SDS011;11773;52.570;13.052;2022-07-23T01:24:31;1.23;;;1.13;;
23206;SDS011;11773;52.570;13.052;2022-07-23T01:27:00;0.87;;;0.87;;
23206;SDS011;11773;52.570;13.052;2022-07-23T01:29:32;1.07;;;1.07;;
23206;SDS011;11773;52.570;13.052;2022-07-23T01:32:02;1.27;;;1.20;;
23206;SDS011;11773;52.570;13.052;2022-07-23T01:34:31;1.30;;;1.20;;
23206;SDS011;11773;52.570;13.052;2022-07-23T01:37:01;1.20;;;1.20;;
23206;SDS011;11773;52.570;13.052;2022-07-23T01:39:31;1.00;;;1.00;;
23206;SDS011;11773;52.570;13.052;2022-07-23T01:42:00;0.80;;;0.80;;
23206;SDS011;11773;52.570;13.052;2022-07-23T01:44:30;1.33;;;1.23;;
23206;SDS011;11773;52.570;13.052;2022-07-23T01:47:00;0.80;;;0.80;;
23206;SDS011;11773;52.570;13.052;2022-07-23T01:49:30;0.90;;;0.90;;
23206;SDS011;11773;52.570;13.052;2022-07-23T01:51:59;0.87;;;0.87;;
23206;SDS011;11773;52.570;13.052;2022-07-23T01:54:30;1.07;;;1.07;;
23206;SDS011;11773;52.570;13.052;2022-07-23T01:57:01;1.40;;;1.30;;
23206;SDS011;11773;52.570;13.052;2022-07-23T01:59:31;0.80;;;0.80;;
23206;SDS011;11773;52.570;13.052;2022-07-23T02:02:01;1.33;;;1.23;;
23206;SDS011;11773;52.570;13.052;2022-07-23T02:04:32;1.17;;;1.17;;
23206;SDS011;11773;52.570;13.052;2022-07-23T02:07:04;0.80;;;0.80;;
23206;SDS011;11773;52.570;13.052;2022-07-23T02:09:34;1.10;;;1.10;;
23206;SDS011;11773;52.570;13.052;2022-07-23T02:12:04;0.90;;;0.90;;
23206;SDS011;11773;52.570;13.052;2022-07-23T02:14:34;1.13;;;1.13;;
23206;SDS011;11773;52.570;13.052;2022-07-23T02:17:05;0.90;;;0.90;;
23206;SDS011;11773;52.570;13.052;2022-07-23T02:19:34;1.00;;;1.00;;
23206;SDS011;11773;52.570;13.052;2022-07-23T02:22:04;0.90;;;0.90;;
23206;SDS011;11773;52.570;13.052;2022-07-23T02:24:34;1.10;;;1.10;;
23206;SDS011;11773;52.570;13.052;2022-07-23T02:27:03;1.10;;;1.10;;
23206;SDS011;11773;52.570;13.052;2022-07-23T02:29:33;1.30;;;1.20;;
23206;SDS011;11773;52.570;13.052;2022-07-23T02:32:02;2.00;;;1.10;;
23206;SDS011;11773;52.570;13.052;2022-07-23T02:34:33;0.90;;;0.90;;
23206;SDS011;11773;52.570;13.052;2022-07-23T02:37:03;0.70;;;0.70;;
23206;SDS011;11773;52.570;13.052;2022-07-23T02:39:32;0.97;;;0.97;;
23206;SDS011;11773;52.570;13.052;2022-07-23T02:42:02;0.70;;;0.70;;
23206;SDS011;11773;52.570;13.052;2022-07-23T02:44:32;1.57;;;1.07;;
23206;SDS011;11773;52.570;13.052;2022-07-23T02:47:02;1.23;;;1.23;;
23206;SDS011;11773;52.570;13.052;2022-07-23T02:49:32;0.87;;;0.87;;
23206;SDS011;11773;52.570;13.052;2022-07-23T02:52:02;1.17;;;1.17;;
23206;SDS011;11773;52.570;13.052;2022-07-23T02:54:31;1.07;;;0.97;;
23206;SDS011;11773;52.570;13.052;2022-07-23T02:57:02;0.90;;;0.90;;
23206;SDS011;11773;52.570;13.052;2022-07-23T02:59:33;1.47;;;1.37;;
23206;SDS011;11773;52.570;13.052;2022-07-23T03:02:02;1.23;;;1.13;;
23206;SDS011;11773;52.570;13.052;2022-07-23T03:04:32;0.80;;;0.80;;
23206;SDS011;11773;52.570;13.052;2022-07-23T03:07:01;0.80;;;0.80;;
23206;SDS011;11773;52.570;13.052;2022-07-23T03:09:31;0.60;;;0.60;;
23206;SDS011;11773;52.570;13.052;2022-07-23T03:12:00;0.77;;;0.60;;
23206;SDS011;11773;52.570;13.052;2022-07-23T03:14:32;0.87;;;0.87;;
23206;SDS011;11773;52.570;13.052;2022-07-23T03:17:02;1.20;;;1.10;;
23206;SDS011;11773;52.570;13.052;2022-07-23T03:19:31;0.80;;;0.80;;
23206;SDS011;11773;52.570;13.052;2022-07-23T03:22:01;0.77;;;0.77;;
23206;SDS011;11773;52.570;13.052;2022-07-23T03:24:30;0.90;;;0.90;;
23206;SDS011;11773;52.570;13.052;2022-07-23T03:27:18;0.70;;;0.70;;
23206;SDS011;11773;52.570;13.052;2022-07-23T03:29:52;0.60;;;0.60;;
23206;SDS011;11773;52.570;13.052;2022-07-23T03:32:24;0.80;;;0.80;;
23206;SDS011;11773;52.570;13.052;2022-07-23T03:34:54;0.90;;;0.90;;
23206;SDS011;11773;52.570;13.052;2022-07-23T03:37:25;0.93;;;0.93;;
23206;SDS011;11773;52.570;13.052;2022-07-23T03:39:55;0.70;;;0.60;;
23206;SDS011;11773;52.570;13.052;2022-07-23T03:42:24;0.63;;;0.63;;
23206;SDS011;11773;52.570;13.052;2022-07-23T03:44:55;0.60;;;0.60;;
23206;SDS011;11773;52.570;13.052;2022-07-23T03:47:24;0.70;;;0.70;;
23206;SDS011;11773;52.570;13.052;2022-07-23T03:49:54;0.70;;;0.70;;
23206;SDS011;11773;52.570;13.052;2022-07-23T03:52:24;1.27;;;1.13;;
23206;SDS011;11773;52.570;13.052;2022-07-23T03:54:53;0.80;;;0.80;;
23206;SDS011;11773;52.570;13.052;2022-07-23T03:57:23;0.80;;;0.80;;
23206;SDS011;11773;52.570;13.052;2022-07-23T03:59:52;0.87;;;0.70;;
23206;SDS011;11773;52.570;13.052;2022-07-23T04:02:22;0.73;;;0.73;;
23206;SDS011;11773;52.570;13.052;2022-07-23T04:04:52;0.87;;;0.70;;
23206;SDS011;11773;52.570;13.052;2022-07-23T04:07:22;1.63;;;0.77;;
23206;SDS011;11773;52.570;13.052;2022-07-23T04:09:51;1.20;;;1.10;;
23206;SDS011;11773;52.570;13.052;2022-07-23T04:12:21;1.17;;;1.17;;
23206;SDS011;11773;52.570;13.052;2022-07-23T04:14:51;0.97;;;0.97;;
23206;SDS011;11773;52.570;13.052;2022-07-23T04:17:21;0.70;;;0.70;;
23206;SDS011;11773;52.570;13.052;2022-07-23T04:19:50;1.20;;;1.07;;
23206;SDS011;11773;52.570;13.052;2022-07-23T04:22:20;0.80;;;0.80;;
23206;SDS011;11773;52.570;13.052;2022-07-23T04:24:49;0.80;;;0.80;;
23206;SDS011;11773;52.570;13.052;2022-07-23T04:27:19;0.80;;;0.80;;
23206;SDS011;11773;52.570;13.052;2022-07-23T04:29:48;0.70;;;0.70;;
23206;SDS011;11773;52.570;13.052;2022-07-23T04:32:18;0.90;;;0.90;;
23206;SDS011;11773;52.570;13.052;2022-07-23T04:34:48;0.77;;;0.77;;
23206;SDS011;11773;52.570;13.052;2022-07-23T04:37:17;0.63;;;0.63;;
23206;SDS011;11773;52.570;13.052;2022-07-23T04:39:47;0.83;;;0.83;;
23206;SDS011;11773;52.570;13.052;2022-07-23T04:42:16;0.87;;;0.80;;
23206;SDS011;11773;52.570;13.052;2022-07-23T04:44:46;0.70;;;0.70;;
23206;SDS011;11773;52.570;13.052;2022-07-23T04:47:15;0.40;;;0.40;;
23206;SDS011;11773;52.570;13.052;2022-07-23T04:49:47;1.17;;;0.80;;
23206;SDS011;11773;52.570;13.052;2022-07-23T04:52:16;0.43;;;0.43;;
23206;SDS011;11773;52.570;13.052;2022-07-23T04:54:46;0.70;;;0.70;;
23206;SDS011;11773;52.570;13.052;2022-07-23T04:57:15;0.63;;;0.63;;
23206;SDS011;11773;52.570;13.052;2022-07-23T04:59:45;1.03;;;1.00;;
23206;SDS011;11773;52.570;13.052;2022-07-23T05:02:14;2.27;;;2.00;;
23206;SDS011;11773;52.570;13.052;2022-07-23T05:04:44;2.60;;;2.10;;
23206;SDS011;11773;52.570;13.052;2022-07-23T05:07:14;1.87;;;1.63;;
23206;SDS011;11773;52.570;13.052;2022-07-23T05:09:43;2.43;;;1.90;;
23206;SDS011;11773;52.570;13.052;2022-07-23T05:12:13;4.40;;;2.90;;
23206;SDS011;11773;52.570;13.052;2022-07-23T05:14:42;2.90;;;2.60;;
23206;SDS011;11773;52.570;13.052;2022-07-23T05:17:12;2.17;;;1.77;;
23206;SDS011;11773;52.570;13.052;2022-07-23T05:19:41;1.67;;;1.43;;
23206;SDS011;11773;52.570;13.052;2022-07-23T05:22:11;1.57;;;1.47;;
23206;SDS011;11773;52.570;13.052;2022-07-23T05:24:41;1.37;;;1.20;;
23206;SDS011;11773;52.570;13.052;2022-07-23T05:27:10;1.43;;;1.23;;
23206;SDS011;11773;52.570;13.052;2022-07-23T05:29:40;0.80;;;0.80;;
23206;SDS011;11773;52.570;13.052;2022-07-23T05:32:09;1.33;;;1.00;;
23206;SDS011;11773;52.570;13.052;2022-07-23T05:34:39;1.33;;;1.17;;
23206;SDS011;11773;52.570;13.052;2022-07-23T05:37:08;1.10;;;0.93;;
23206;SDS011;11773;52.570;13.052;2022-07-23T05:39:38;1.20;;;1.10;;
23206;SDS011;11773;52.570;13.052;2022-07-23T05:42:07;0.68;;;0.68;;
23206;SDS011;11773;52.570;13.052;2022-07-23T05:44:37;0.70;;;0.60;;
23206;SDS011;11773;52.570;13.052;2022-07-23T05:47:07;0.80;;;0.80;;
23206;SDS011;11773;52.570;13.052;2022-07-23T05:49:37;0.83;;;0.80;;
23206;SDS011;11773;52.570;13.052;2022-07-23T05:52:06;0.53;;;0.53;;
23206;SDS011;11773;52.570;13.052;2022-07-23T05:54:36;0.50;;;0.50;;
23206;SDS011;11773;52.570;13.052;2022-07-23T05:57:06;0.60;;;0.60;;
23206;SDS011;11773;52.570;13.052;2022-07-23T05:59:36;0.50;;;0.50;;
23206;SDS011;11773;52.570;13.052;2022-07-23T06:02:05;1.15;;;0.98;;
23206;SDS011;11773;52.570;13.052;2022-07-23T06:04:35;1.23;;;1.00;;
23206;SDS011;11773;52.570;13.052;2022-07-23T06:07:04;1.00;;;0.90;;
23206;SDS011;11773;52.570;13.052;2022-07-23T06:09:34;0.90;;;0.80;;
23206;SDS011;11773;52.570;13.052;2022-07-23T06:12:04;0.70;;;0.70;;
23206;SDS011;11773;52.570;13.052;2022-07-23T06:14:34;1.60;;;1.00;;
23206;SDS011;11773;52.570;13.052;2022-07-23T06:17:03;0.87;;;0.87;;
23206;SDS011;11773;52.570;13.052;2022-07-23T06:19:33;0.83;;;0.73;;
23206;SDS011;11773;52.570;13.052;2022-07-23T06:22:03;0.70;;;0.70;;
23206;SDS011;11773;52.570;13.052;2022-07-23T06:24:32;1.27;;;0.70;;
23206;SDS011;11773;52.570;13.052;2022-07-23T06:27:02;0.70;;;0.63;;
23206;SDS011;11773;52.570;13.052;2022-07-23T06:29:32;0.77;;;0.77;;
23206;SDS011;11773;52.570;13.052;2022-07-23T06:32:01;1.83;;;1.10;;
23206;SDS011;11773;52.570;13.052;2022-07-23T06:34:31;0.90;;;0.90;;
23206;SDS011;11773;52.570;13.052;2022-07-23T06:37:01;0.83;;;0.83;;
23206;SDS011;11773;52.570;13.052;2022-07-23T06:39:30;1.17;;;1.10;;
23206;SDS011;11773;52.570;13.052;2022-07-23T06:42:00;1.10;;;1.10;;
23206;SDS011;11773;52.570;13.052;2022-07-23T06:44:30;0.90;;;0.90;;
23206;SDS011;11773;52.570;13.052;2022-07-23T06:46:59;0.90;;;0.90;;
23206;SDS011;11773;52.570;13.052;2022-07-23T06:49:29;1.90;;;1.20;;
23206;SDS011;11773;52.570;13.052;2022-07-23T06:51:58;0.87;;;0.87;;
23206;SDS011;11773;52.570;13.052;2022-07-23T06:54:28;1.27;;;1.10;;
23206;SDS011;11773;52.570;13.052;2022-07-23T06:56:58;0.83;;;0.83;;
23206;SDS011;11773;52.570;13.052;2022-07-23T06:59:27;0.83;;;0.83;;
23206;SDS011;11773;52.570;13.052;2022-07-23T07:01:57;1.27;;;0.80;;
23206;SDS011;11773;52.570;13.052;2022-07-23T07:04:27;0.97;;;0.97;;
23206;SDS011;11773;52.570;13.052;2022-07-23T07:06:56;0.70;;;0.70;;
23206;SDS011;11773;52.570;13.052;2022-07-23T07:09:26;0.93;;;0.93;;
23206;SDS011;11773;52.570;13.052;2022-07-23T07:11:55;0.67;;;0.67;;
23206;SDS011;11773;52.570;13.052;2022-07-23T07:14:25;0.80;;;0.80;;
23206;SDS011;11773;52.570;13.052;2022-07-23T07:16:55;1.40;;;1.30;;
23206;SDS011;11773;52.570;13.052;2022-07-23T07:19:25;0.97;;;0.97;;
23206;SDS011;11773;52.570;13.052;2022-07-23T07:21:54;1.03;;;0.90;;
23206;SDS011;11773;52.570;13.052;2022-07-23T07:24:24;0.90;;;0.90;;
23206;SDS011;11773;52.570;13.052;2022-07-23T07:26:55;1.10;;;1.07;;
23206;SDS011;11773;52.570;13.052;2022-07-23T07:29:25;0.80;;;0.80;;
23206;SDS011;11773;52.570;13.052;2022-07-23T07:31:55;1.10;;;1.10;;
23206;SDS011;11773;52.570;13.052;2022-07-23T07:34:24;1.60;;;1.50;;
23206;SDS011;11773;52.570;13.052;2022-07-23T07:36:54;0.67;;;0.67;;
23206;SDS011;11773;52.570;13.052;2022-07-23T07:39:23;0.93;;;0.93;;
23206;SDS011;11773;52.570;13.052;2022-07-23T07:44:29;1.20;;;1.10;;
23206;SDS011;11773;52.570;13.052;2022-07-23T07:46:59;1.00;;;1.00;;
23206;SDS011;11773;52.570;13.052;2022-07-23T07:49:28;1.20;;;1.13;;
23206;SDS011;11773;52.570;13.052;2022-07-23T07:52:00;1.60;;;0.97;;
23206;SDS011;11773;52.570;13.052;2022-07-23T07:54:29;1.77;;;1.43;;
23206;SDS011;11773;52.570;13.052;2022-07-23T07:56:59;1.37;;;1.10;;
23206;SDS011;11773;52.570;13.052;2022-07-23T07:59:30;0.83;;;0.83;;
23206;SDS011;11773;52.570;13.052;2022-07-23T08:02:00;1.50;;;1.23;;
23206;SDS011;11773;52.570;13.052;2022-07-23T08:04:30;1.30;;;1.20;;
23206;SDS011;11773;52.570;13.052;2022-07-23T08:07:00;1.30;;;1.10;;
23206;SDS011;11773;52.570;13.052;2022-07-23T08:09:29;1.30;;;1.20;;
23206;SDS011;11773;52.570;13.052;2022-07-23T08:11:59;1.10;;;1.00;;
23206;SDS011;11773;52.570;13.052;2022-07-23T08:14:29;1.33;;;1.10;;
23206;SDS011;11773;52.570;13.052;2022-07-23T08:16:58;1.33;;;1.07;;
23206;SDS011;11773;52.570;13.052;2022-07-23T08:19:29;1.43;;;1.33;;
23206;SDS011;11773;52.570;13.052;2022-07-23T08:21:59;1.57;;;1.47;;
23206;SDS011;11773;52.570;13.052;2022-07-23T08:24:29;1.20;;;1.10;;
23206;SDS011;11773;52.570;13.052;2022-07-23T08:26:58;1.50;;;1.30;;
23206;SDS011;11773;52.570;13.052;2022-07-23T08:29:28;1.60;;;1.10;;
23206;SDS011;11773;52.570;13.052;2022-07-23T08:31:57;1.70;;;1.60;;
23206;SDS011;11773;52.570;13.052;2022-07-23T08:34:29;0.90;;;0.90;;
23206;SDS011;11773;52.570;13.052;2022-07-23T08:36:58;1.37;;;1.30;;
23206;SDS011;11773;52.570;13.052;2022-07-23T08:39:28;1.17;;;1.10;;
23206;SDS011;11773;52.570;13.052;2022-07-23T08:41:57;1.00;;;1.00;;
23206;SDS011;11773;52.570;13.052;2022-07-23T08:44:27;1.20;;;1.10;;
23206;SDS011;11773;52.570;13.052;2022-07-23T08:46:56;0.83;;;0.83;;
23206;SDS011;11773;52.570;13.052;2022-07-23T08:49:27;1.17;;;0.83;;
23206;SDS011;11773;52.570;13.052;2022-07-23T08:51:58;1.27;;;1.00;;
23206;SDS011;11773;52.570;13.052;2022-07-23T08:54:29;1.23;;;1.00;;
23206;SDS011;11773;52.570;13.052;2022-07-23T08:56:59;1.07;;;0.90;;
23206;SDS011;11773;52.570;13.052;2022-07-23T08:59:29;1.27;;;1.07;;
23206;SDS011;11773;52.570;13.052;2022-07-23T09:01:59;1.13;;;0.80;;
23206;SDS011;11773;52.570;13.052;2022-07-23T09:04:28;0.80;;;0.80;;
23206;SDS011;11773;52.570;13.052;2022-07-23T09:07:01;0.80;;;0.80;;
23206;SDS011;11773;52.570;13.052;2022-07-23T09:09:31;1.00;;;0.90;;
23206;SDS011;11773;52.570;13.052;2022-07-23T09:12:04;1.10;;;1.00;;
23206;SDS011;11773;52.570;13.052;2022-07-23T09:14:38;1.50;;;0.90;;
23206;SDS011;11773;52.570;13.052;2022-07-23T09:17:16;0.80;;;0.73;;
23206;SDS011;11773;52.570;13.052;2022-07-23T09:19:47;1.20;;;1.10;;
23206;SDS011;11773;52.570;13.052;2022-07-23T09:22:22;0.83;;;0.80;;
23206;SDS011;11773;52.570;13.052;2022-07-23T09:27:49;0.93;;;0.93;;
23206;SDS011;11773;52.570;13.052;2022-07-23T09:30:25;1.23;;;1.13;;
23206;SDS011;11773;52.570;13.052;2022-07-23T09:33:05;1.10;;;1.10;;
23206;SDS011;11773;52.570;13.052;2022-07-23T09:35:43;1.20;;;1.10;;
23206;SDS011;11773;52.570;13.052;2022-07-23T09:38:22;1.00;;;1.00;;
23206;SDS011;11773;52.570;13.052;2022-07-23T09:41:10;1.10;;;0.90;;
23206;SDS011;11773;52.570;13.052;2022-07-23T09:43:37;1.03;;;1.00;;
23206;SDS011;11773;52.570;13.052;2022-07-23T09:46:27;1.10;;;0.97;;
23206;SDS011;11773;52.570;13.052;2022-07-23T09:48:56;1.13;;;1.03;;
23206;SDS011;11773;52.570;13.052;2022-07-23T09:51:26;1.50;;;1.40;;
23206;SDS011;11773;52.570;13.052;2022-07-23T09:54:04;1.37;;;1.17;;
23206;SDS011;11773;52.570;13.052;2022-07-23T09:56:33;1.23;;;1.13;;
23206;SDS011;11773;52.570;13.052;2022-07-23T09:59:05;1.37;;;1.17;;
23206;SDS011;11773;52.570;13.052;2022-07-23T10:01:37;1.10;;;1.00;;
23206;SDS011;11773;52.570;13.052;2022-07-23T10:04:07;1.60;;;1.20;;
23206;SDS011;11773;52.570;13.052;2022-07-23T10:06:41;1.60;;;1.00;;
23206;SDS011;11773;52.570;13.052;2022-07-23T10:09:14;0.90;;;0.90;;
23206;SDS011;11773;52.570;13.052;2022-07-23T10:11:48;1.27;;;0.97;;
23206;SDS011;11773;52.570;13.052;2022-07-23T10:14:20;1.40;;;1.30;;
23206;SDS011;11773;52.570;13.052;2022-07-23T10:16:50;1.33;;;1.23;;
23206;SDS011;11773;52.570;13.052;2022-07-23T10:19:20;0.87;;;0.87;;
23206;SDS011;11773;52.570;13.052;2022-07-23T10:21:52;1.10;;;1.00;;
23206;SDS011;11773;52.570;13.052;2022-07-23T10:24:47;0.73;;;0.73;;
23206;SDS011;11773;52.570;13.052;2022-07-23T10:30:28;0.90;;;0.90;;
23206;SDS011;11773;52.570;13.052;2022-07-23T10:33:05;1.00;;;0.80;;
23206;SDS011;11773;52.570;13.052;2022-07-23T10:38:59;1.53;;;1.27;;
23206;SDS011;11773;52.570;13.052;2022-07-23T10:41:39;1.37;;;1.25;;
23206;SDS011;11773;52.570;13.052;2022-07-23T10:44:16;0.97;;;0.97;;
23206;SDS011;11773;52.570;13.052;2022-07-23T10:46:57;1.13;;;1.10;;
23206;SDS011;11773;52.570;13.052;2022-07-23T10:49:36;1.60;;;1.23;;
23206;SDS011;11773;52.570;13.052;2022-07-23T10:57:54;1.20;;;1.10;;
23206;SDS011;11773;52.570;13.052;2022-07-23T11:00:26;1.37;;;1.27;;
23206;SDS011;11773;52.570;13.052;2022-07-23T11:03:02;1.50;;;1.40;;
23206;SDS011;11773;52.570;13.052;2022-07-23T11:05:42;1.37;;;1.30;;
23206;SDS011;11773;52.570;13.052;2022-07-23T11:08:15;1.50;;;1.40;;
23206;SDS011;11773;52.570;13.052;2022-07-23T11:10:51;0.93;;;0.93;;
23206;SDS011;11773;52.570;13.052;2022-07-23T11:13:26;1.13;;;1.03;;
23206;SDS011;11773;52.570;13.052;2022-07-23T11:24:14;1.50;;;1.30;;
23206;SDS011;11773;52.570;13.052;2022-07-23T11:26:47;1.40;;;1.30;;
23206;SDS011;11773;52.570;13.052;2022-07-23T11:32:05;1.03;;;1.03;;
23206;SDS011;11773;52.570;13.052;2022-07-23T11:40:07;1.10;;;1.00;;
23206;SDS011;11773;52.570;13.052;2022-07-23T11:42:41;1.30;;;1.20;;
23206;SDS011;11773;52.570;13.052;2022-07-23T11:45:29;1.30;;;1.20;;
23206;SDS011;11773;52.570;13.052;2022-07-23T11:48:06;1.43;;;0.90;;
23206;SDS011;11773;52.570;13.052;2022-07-23T11:50:45;1.00;;;1.00;;
23206;SDS011;11773;52.570;13.052;2022-07-23T11:53:27;1.27;;;1.17;;
23206;SDS011;11773;52.570;13.052;2022-07-23T11:56:05;1.27;;;1.17;;
23206;SDS011;11773;52.570;13.052;2022-07-23T11:58:34;1.63;;;1.20;;
23206;SDS011;11773;52.570;13.052;2022-07-23T12:01:04;1.30;;;1.27;;
23206;SDS011;11773;52.570;13.052;2022-07-23T12:03:36;1.40;;;1.30;;
23206;SDS011;11773;52.570;13.052;2022-07-23T12:06:09;1.50;;;1.40;;
23206;SDS011;11773;52.570;13.052;2022-07-23T12:08:42;1.50;;;1.40;;
23206;SDS011;11773;52.570;13.052;2022-07-23T12:11:13;1.20;;;1.10;;
23206;SDS011;11773;52.570;13.052;2022-07-23T12:13:42;2.53;;;1.43;;
23206;SDS011;11773;52.570;13.052;2022-07-23T12:16:13;0.93;;;0.93;;
23206;SDS011;11773;52.570;13.052;2022-07-23T12:18:43;0.80;;;0.80;;
23206;SDS011;11773;52.570;13.052;2022-07-23T12:21:13;1.00;;;0.93;;
23206;SDS011;11773;52.570;13.052;2022-07-23T12:23:43;1.80;;;1.10;;
23206;SDS011;11773;52.570;13.052;2022-07-23T12:26:16;1.33;;;1.23;;
23206;SDS011;11773;52.570;13.052;2022-07-23T12:28:51;1.50;;;0.80;;
23206;SDS011;11773;52.570;13.052;2022-07-23T12:31:27;0.97;;;0.90;;
23206;SDS011;11773;52.570;13.052;2022-07-23T12:33:57;0.70;;;0.70;;
23206;SDS011;11773;52.570;13.052;2022-07-23T12:36:36;0.97;;;0.97;;
23206;SDS011;11773;52.570;13.052;2022-07-23T12:39:10;0.80;;;0.80;;
23206;SDS011;11773;52.570;13.052;2022-07-23T12:41:52;1.27;;;1.00;;
23206;SDS011;11773;52.570;13.052;2022-07-23T12:44:23;0.87;;;0.87;;
23206;SDS011;11773;52.570;13.052;2022-07-23T12:46:53;1.03;;;1.00;;
23206;SDS011;11773;52.570;13.052;2022-07-23T12:49:28;0.90;;;0.90;;
23206;SDS011;11773;52.570;13.052;2022-07-23T12:51:58;1.00;;;1.00;;
23206;SDS011;11773;52.570;13.052;2022-07-23T12:54:27;0.93;;;0.93;;
23206;SDS011;11773;52.570;13.052;2022-07-23T12:56:57;1.03;;;1.03;;
23206;SDS011;11773;52.570;13.052;2022-07-23T12:59:30;0.80;;;0.80;;
23206;SDS011;11773;52.570;13.052;2022-07-23T13:01:59;0.93;;;0.93;;
23206;SDS011;11773;52.570;13.052;2022-07-23T13:04:29;1.00;;;1.00;;
23206;SDS011;11773;52.570;13.052;2022-07-23T13:07:01;0.90;;;0.90;;
23206;SDS011;11773;52.570;13.052;2022-07-23T13:09:32;0.70;;;0.70;;
23206;SDS011;11773;52.570;13.052;2022-07-23T13:12:04;1.10;;;0.83;;
23206;SDS011;11773;52.570;13.052;2022-07-23T13:14:37;0.97;;;0.97;;
23206;SDS011;11773;52.570;13.052;2022-07-23T13:17:08;0.90;;;0.90;;
23206;SDS011;11773;52.570;13.052;2022-07-23T13:19:39;1.20;;;1.10;;
23206;SDS011;11773;52.570;13.052;2022-07-23T13:22:08;0.80;;;0.80;;
23206;SDS011;11773;52.570;13.052;2022-07-23T13:24:38;0.63;;;0.63;;
23206;SDS011;11773;52.570;13.052;2022-07-23T13:27:07;0.80;;;0.80;;
23206;SDS011;11773;52.570;13.052;2022-07-23T13:29:39;0.70;;;0.70;;
23206;SDS011;11773;52.570;13.052;2022-07-23T13:32:11;0.80;;;0.80;;
23206;SDS011;11773;52.570;13.052;2022-07-23T13:34:41;0.83;;;0.83;;
23206;SDS011;11773;52.570;13.052;2022-07-23T13:37:12;0.80;;;0.80;;
23206;SDS011;11773;52.570;13.052;2022-07-23T13:39:41;0.70;;;0.70;;
23206;SDS011;11773;52.570;13.052;2022-07-23T13:42:13;0.50;;;0.50;;
23206;SDS011;11773;52.570;13.052;2022-07-23T13:44:42;0.77;;;0.77;;
23206;SDS011;11773;52.570;13.052;2022-07-23T13:47:14;0.83;;;0.70;;
23206;SDS011;11773;52.570;13.052;2022-07-23T13:49:44;0.80;;;0.77;;
23206;SDS011;11773;52.570;13.052;2022-07-23T13:52:14;0.73;;;0.70;;
23206;SDS011;11773;52.570;13.052;2022-07-23T13:54:44;0.90;;;0.90;;
23206;SDS011;11773;52.570;13.052;2022-07-23T13:57:13;0.80;;;0.80;;
23206;SDS011;11773;52.570;13.052;2022-07-23T13:59:43;2.43;;;0.87;;
23206;SDS011;11773;52.570;13.052;2022-07-23T14:02:13;0.63;;;0.63;;
23206;SDS011;11773;52.570;13.052;2022-07-23T14:04:47;0.67;;;0.67;;
23206;SDS011;11773;52.570;13.052;2022-07-23T14:07:17;0.90;;;0.90;;
23206;SDS011;11773;52.570;13.052;2022-07-23T14:09:48;0.60;;;0.60;;
23206;SDS011;11773;52.570;13.052;2022-07-23T14:12:18;0.80;;;0.80;;
23206;SDS011;11773;52.570;13.052;2022-07-23T14:14:49;0.77;;;0.77;;
23206;SDS011;11773;52.570;13.052;2022-07-23T14:17:19;0.60;;;0.60;;
23206;SDS011;11773;52.570;13.052;2022-07-23T14:19:51;0.67;;;0.67;;
23206;SDS011;11773;52.570;13.052;2022-07-23T14:22:21;0.80;;;0.80;;
23206;SDS011;11773;52.570;13.052;2022-07-23T14:24:51;0.50;;;0.50;;
23206;SDS011;11773;52.570;13.052;2022-07-23T14:27:20;0.60;;;0.60;;
23206;SDS011;11773;52.570;13.052;2022-07-23T14:29:51;1.03;;;0.87;;
23206;SDS011;11773;52.570;13.052;2022-07-23T14:32:22;0.67;;;0.67;;
23206;SDS011;11773;52.570;13.052;2022-07-23T14:34:52;0.57;;;0.57;;
23206;SDS011;11773;52.570;13.052;2022-07-23T14:37:24;0.87;;;0.50;;
23206;SDS011;11773;52.570;13.052;2022-07-23T14:39:53;0.60;;;0.53;;
23206;SDS011;11773;52.570;13.052;2022-07-23T14:42:23;0.60;;;0.60;;
23206;SDS011;11773;52.570;13.052;2022-07-23T14:44:53;0.70;;;0.70;;
23206;SDS011;11773;52.570;13.052;2022-07-23T14:47:22;0.43;;;0.43;;
23206;SDS011;11773;52.570;13.052;2022-07-23T14:49:53;0.67;;;0.67;;
23206;SDS011;11773;52.570;13.052;2022-07-23T14:52:23;0.67;;;0.67;;
23206;SDS011;11773;52.570;13.052;2022-07-23T14:54:53;0.70;;;0.70;;
23206;SDS011;11773;52.570;13.052;2022-07-23T14:57:22;0.50;;;0.50;;
23206;SDS011;11773;52.570;13.052;2022-07-23T14:59:53;0.50;;;0.50;;
23206;SDS011;11773;52.570;13.052;2022-07-23T15:02:23;0.60;;;0.60;;
23206;SDS011;11773;52.570;13.052;2022-07-23T15:04:54;0.40;;;0.40;;
23206;SDS011;11773;52.570;13.052;2022-07-23T15:07:25;0.50;;;0.50;;
23206;SDS011;11773;52.570;13.052;2022-07-23T15:09:56;0.70;;;0.70;;
23206;SDS011;11773;52.570;13.052;2022-07-23T15:12:28;0.70;;;0.70;;
23206;SDS011;11773;52.570;13.052;2022-07-23T15:14:57;0.50;;;0.50;;
23206;SDS011;11773;52.570;13.052;2022-07-23T15:17:27;0.60;;;0.60;;
23206;SDS011;11773;52.570;13.052;2022-07-23T15:19:56;0.30;;;0.30;;
23206;SDS011;11773;52.570;13.052;2022-07-23T15:22:26;0.50;;;0.50;;
23206;SDS011;11773;52.570;13.052;2022-07-23T15:24:56;0.80;;;0.47;;
23206;SDS011;11773;52.570;13.052;2022-07-23T15:27:26;0.60;;;0.60;;
23206;SDS011;11773;52.570;13.052;2022-07-23T15:29:57;0.60;;;0.60;;
23206;SDS011;11773;52.570;13.052;2022-07-23T15:32:26;0.57;;;0.57;;